KCFD/CFD METAR and TAF weather

Enter ICAO airport designator
Station Type Date Time Source
KCFD METAR 2019/10/23 07:55 UTC NOAA

KCFD 230755Z AUTO 15003KT 10SM CLR 14/08 A3014 RMK AO2 T01350075


Station Type Date Time Source
KCFD Decoded METAR 2019/10/23 07:55 UTC NOAA

Station name not available
Oct 23, 2019 - 03:55 AM EDT / 2019.10.23 0755 UTC
Wind: from the SSE (150 degrees) at 3 MPH (3 KT):0
Visibility: 10 mile(s):0
Sky conditions: clear
Temperature: 56.3 F (13.5 C)
Dew Point: 45.5 F (7.5 C)
Relative Humidity: 66%
Pressure (altimeter): 30.14 in. Hg (1020 hPa)
ob: KCFD 230755Z AUTO 15003KT 10SM CLR 14/08 A3014 RMK AO2 T01350075
cycle: 8

Station Type Date Time Source
KCFD TAF UTC NOAA

Error!

Example: see airport list